Time;durP1;ratioP1;P1;durP2;ratioP2;P2;SDS_P1;SDS_P2;PMS_P1;PMS_P2;Temp;Humidity;BMP_temperature;BMP_pressure;BME280_temperature;BME280_humidity;BME280_pressure;Samples;Min_cycle;Max_cycle;Signal;HPM_P1;HPM_P2
2022/07/02 00:21:58;;;;;;;3.42;1.23;;;14.40;99.90;;;;;;6222834;22;20020;-91
2022/07/02 00:24:24;;;;;;;1.90;1.00;;;14.40;99.90;;;;;;6195910;23;20101;-91
2022/07/02 00:26:59;;;;;;;1.83;0.93;;;14.40;99.90;;;;;;6196036;23;20016;-92
2022/07/02 00:29:42;;;;;;;1.48;0.85;;;14.40;99.90;;;;;;6195549;23;20012;-91
2022/07/02 00:32:08;;;;;;;2.47;0.90;;;14.40;99.90;;;;;;6195999;23;20103;-93
2022/07/02 00:34:36;;;;;;;3.20;1.08;;;14.40;99.90;;;;;;6195951;23;20012;-92
2022/07/02 00:37:03;;;;;;;3.33;1.20;;;14.40;99.90;;;;;;6195785;23;20012;-92
2022/07/02 00:39:29;;;;;;;1.83;0.90;;;14.40;99.90;;;;;;6195894;23;20058;-92
2022/07/02 00:42:22;;;;;;;2.30;1.05;;;14.40;99.90;;;;;;6196058;23;20008;-92
2022/07/02 00:44:51;;;;;;;2.10;1.10;;;14.40;99.90;;;;;;6221231;23;20032;-92
2022/07/02 00:47:19;;;;;;;1.67;0.90;;;14.40;99.90;;;;;;6195955;23;20020;-92
2022/07/02 00:49:46;;;;;;;2.53;0.93;;;14.30;99.90;;;;;;6196350;23;20016;-92
2022/07/02 00:52:11;;;;;;;2.88;1.15;;;14.30;99.90;;;;;;6196628;23;20031;-92
2022/07/02 00:54:40;;;;;;;2.58;1.00;;;14.30;99.90;;;;;;6197300;23;20016;-92
2022/07/02 00:57:06;;;;;;;2.40;0.85;;;14.30;99.90;;;;;;6200102;23;20020;-92
2022/07/02 00:59:33;;;;;;;3.20;1.20;;;14.30;99.90;;;;;;6205035;23;20020;-91
2022/07/02 02:02:17;;;;;;;2.42;1.20;;;14.20;99.90;;;;;;6276268;22;20028;-93
2022/07/02 02:36:11;;;;;;;2.20;0.98;;;14.10;99.90;;;;;;6209941;22;20028;-91
2022/07/02 02:38:36;;;;;;;2.67;1.15;;;14.10;99.90;;;;;;6189276;23;20094;-90
2022/07/02 02:41:34;;;;;;;2.53;0.90;;;14.10;99.90;;;;;;6189013;23;20020;-91
2022/07/02 02:44:00;;;;;;;2.88;1.15;;;14.10;99.90;;;;;;6189142;23;20331;-91
2022/07/02 02:47:21;;;;;;;2.58;1.00;;;14.10;99.90;;;;;;6189188;23;20027;-91
2022/07/02 02:49:47;;;;;;;2.78;1.00;;;14.10;99.90;;;;;;6189173;23;20017;-90
2022/07/02 03:05:46;;;;;;;2.17;0.90;;;14.00;99.90;;;;;;6183874;23;20021;-92
2022/07/02 03:08:12;;;;;;;4.20;1.20;;;14.00;99.90;;;;;;6135380;23;20386;-92
2022/07/02 03:10:37;;;;;;;2.63;1.08;;;13.90;99.90;;;;;;6135665;23;20028;-92
2022/07/02 03:13:03;;;;;;;2.30;0.90;;;13.90;99.90;;;;;;6135617;23;20013;-92
2022/07/02 03:15:29;;;;;;;3.47;1.10;;;13.90;99.90;;;;;;6135158;23;20075;-92
2022/07/02 03:17:55;;;;;;;2.17;0.90;;;13.90;99.90;;;;;;6135249;23;20262;-91
2022/07/02 03:20:20;;;;;;;2.67;1.10;;;13.90;99.90;;;;;;6159559;23;20260;-91
2022/07/02 03:22:46;;;;;;;2.17;1.00;;;13.90;99.90;;;;;;6135139;23;20245;-91
2022/07/02 03:25:12;;;;;;;3.13;1.20;;;13.90;99.90;;;;;;6136383;23;20739;-91
2022/07/02 03:27:38;;;;;;;3.00;0.98;;;13.80;99.90;;;;;;6160995;23;20055;-91
2022/07/02 03:30:06;;;;;;;2.72;1.00;;;13.80;99.90;;;;;;6137160;23;20342;-91
2022/07/02 03:32:31;;;;;;;2.65;1.27;;;13.80;99.90;;;;;;6136921;23;20017;-92
2022/07/02 03:34:57;;;;;;;3.85;1.13;;;13.80;99.90;;;;;;6136836;23;20017;-91
2022/07/02 03:37:26;;;;;;;2.55;1.00;;;13.80;99.90;;;;;;6136710;23;20506;-91
2022/07/02 03:45:03;;;;;;;3.28;1.27;;;13.80;99.90;;;;;;6222974;22;20020;-90
2022/07/02 03:50:05;;;;;;;2.03;0.80;;;13.90;99.90;;;;;;6228427;22;19919;-91
2022/07/02 03:52:36;;;;;;;3.60;1.27;;;13.80;99.90;;;;;;6189890;23;20083;-91
2022/07/02 03:55:16;;;;;;;5.07;1.30;;;13.90;99.90;;;;;;6191010;23;20450;-90
2022/07/02 03:57:41;;;;;;;4.40;1.27;;;13.90;99.90;;;;;;6191159;23;20027;-91
2022/07/02 04:00:16;;;;;;;3.13;1.10;;;13.90;99.90;;;;;;6191231;23;20017;-91
2022/07/02 04:02:42;;;;;;;2.83;1.10;;;13.90;99.90;;;;;;6191463;23;20086;-92
2022/07/02 04:15:26;;;;;;;2.40;1.20;;;14.00;99.90;;;;;;6248314;22;20020;-91
2022/07/02 04:18:18;;;;;;;3.00;1.58;;;14.10;99.90;;;;;;6248783;23;20024;-89
2022/07/02 04:20:46;;;;;;;3.60;1.27;;;14.10;99.90;;;;;;6228219;23;20016;-92
2022/07/02 04:23:12;;;;;;;4.63;1.50;;;14.10;99.90;;;;;;6233775;23;20031;-91
2022/07/02 04:25:38;;;;;;;2.70;1.38;;;14.20;99.90;;;;;;6234125;23;20009;-91
2022/07/02 04:28:04;;;;;;;3.00;1.50;;;14.20;99.90;;;;;;6246593;23;20020;-92
2022/07/02 04:30:30;;;;;;;3.78;1.60;;;14.20;99.90;;;;;;6220935;23;20265;-93
2022/07/02 04:32:58;;;;;;;2.83;1.40;;;14.20;99.90;;;;;;6221046;23;20020;-92
2022/07/02 04:35:23;;;;;;;3.85;1.70;;;14.30;99.90;;;;;;6220395;23;20282;-91
2022/07/02 04:37:49;;;;;;;6.33;1.30;;;14.30;99.90;;;;;;6220712;23;20020;-91
2022/07/02 04:40:15;;;;;;;2.87;1.17;;;14.30;99.90;;;;;;6220839;23;20716;-92
2022/07/02 04:42:40;;;;;;;2.83;1.30;;;14.40;99.90;;;;;;6220448;23;20080;-92
2022/07/02 04:45:07;;;;;;;2.92;1.10;;;14.40;99.90;;;;;;6220685;23;20243;-91
2022/07/02 04:57:54;;;;;;;3.08;1.38;;;14.60;99.90;;;;;;6186508;22;20025;-90
2022/07/02 05:00:23;;;;;;;2.42;1.08;;;14.70;99.90;;;;;;6135873;23;20027;-92
2022/07/02 05:03:28;;;;;;;3.15;1.10;;;14.80;99.90;;;;;;6135805;23;20013;-91
2022/07/02 07:42:39;;;;;;;1.20;0.55;;;21.00;99.90;;;;;;6243905;22;20028;-93
2022/07/02 07:45:05;;;;;;;1.60;0.50;;;20.90;99.90;;;;;;6191613;23;20023;-92
2022/07/02 07:47:30;;;;;;;1.23;0.60;;;20.70;99.90;;;;;;6193934;23;20040;-91
2022/07/02 07:50:16;;;;;;;3.53;0.50;;;20.50;99.90;;;;;;6190861;23;20059;-92
2022/07/02 07:52:42;;;;;;;1.67;0.50;;;20.30;99.90;;;;;;6190750;23;20012;-94
2022/07/02 07:55:08;;;;;;;2.40;0.57;;;20.10;99.90;;;;;;6191002;23;20195;-93
2022/07/02 07:57:34;;;;;;;1.20;0.60;;;20.00;99.90;;;;;;6191021;23;20024;-93
2022/07/02 07:59:59;;;;;;;1.98;0.60;;;19.80;99.90;;;;;;6215622;23;20013;-91
2022/07/02 08:02:25;;;;;;;1.55;0.68;;;19.70;99.90;;;;;;6190680;23;20071;-93
2022/07/02 08:04:50;;;;;;;2.03;0.50;;;19.70;99.90;;;;;;6191066;23;20021;-93
2022/07/02 08:07:16;;;;;;;1.60;0.40;;;19.60;99.90;;;;;;6190856;23;20489;-91
2022/07/02 08:09:42;;;;;;;0.98;0.40;;;19.60;99.90;;;;;;6215573;23;20039;-91
2022/07/02 08:12:08;;;;;;;2.35;0.60;;;19.60;99.90;;;;;;6190940;23;20020;-90
2022/07/02 08:14:33;;;;;;;1.48;0.40;;;19.60;99.90;;;;;;6191204;23;20013;-91
2022/07/02 08:16:59;;;;;;;0.35;0.30;;;19.60;99.90;;;;;;6215641;23;20398;-93
2022/07/02 08:19:25;;;;;;;1.85;0.30;;;19.60;99.90;;;;;;6191102;23;20016;-90
2022/07/02 08:21:51;;;;;;;2.63;0.45;;;19.50;99.90;;;;;;6216182;23;20024;-91
2022/07/02 08:24:16;;;;;;;0.68;0.32;;;19.40;99.90;;;;;;6215997;23;20043;-93
2022/07/02 08:26:42;;;;;;;0.45;0.20;;;19.40;99.90;;;;;;6217401;23;20027;-93
2022/07/02 08:29:09;;;;;;;1.33;0.52;;;19.30;99.90;;;;;;6190728;23;20579;-91
2022/07/02 08:31:34;;;;;;;0.73;0.30;;;19.40;99.90;;;;;;6215545;23;20013;-91
2022/07/02 08:34:00;;;;;;;1.90;0.70;;;19.40;99.90;;;;;;6217164;23;20021;-92
2022/07/02 08:36:27;;;;;;;0.60;0.40;;;19.40;99.90;;;;;;6218209;23;20040;-93
2022/07/02 08:38:55;;;;;;;1.02;0.40;;;19.30;99.90;;;;;;6215921;23;20015;-93
2022/07/02 08:41:22;;;;;;;1.83;0.40;;;19.30;99.90;;;;;;6217089;23;20416;-93
2022/07/02 08:43:51;;;;;;;1.50;0.50;;;19.30;99.90;;;;;;6214846;23;20388;-94
2022/07/02 08:46:18;;;;;;;3.05;0.68;;;19.30;99.90;;;;;;6213705;23;20024;-94
2022/07/02 08:48:44;;;;;;;1.05;0.50;;;19.30;99.90;;;;;;6188723;23;20054;-92
2022/07/02 08:51:13;;;;;;;0.90;0.43;;;19.30;99.90;;;;;;6187937;23;20021;-90
2022/07/02 08:53:40;;;;;;;1.00;0.30;;;19.40;99.90;;;;;;6189891;23;20079;-93
2022/07/02 08:56:07;;;;;;;1.00;0.43;;;19.40;99.90;;;;;;6190260;23;20017;-90
2022/07/02 08:58:34;;;;;;;1.63;0.57;;;19.40;99.90;;;;;;6215416;23;20347;-94
2022/07/02 09:01:00;;;;;;;;;;;19.50;99.90;;;;;;6190619;23;20021;-93
2022/07/02 09:03:26;;;;;;;1.65;0.50;;;19.50;99.90;;;;;;6190261;23;19923;-93
2022/07/02 10:08:55;;;;;;;0.50;0.17;;;20.20;97.10;;;;;;6241263;22;20020;-94
2022/07/02 10:40:49;;;;;;;1.73;0.17;;;20.80;95.30;;;;;;6065197;23;20023;-91
2022/07/02 10:48:16;;;;;;;0.65;0.20;;;21.10;95.40;;;;;;6064563;23;20452;-91
2022/07/02 10:50:43;;;;;;;2.35;0.22;;;21.10;94.70;;;;;;6165053;23;20023;-91
2022/07/02 10:53:20;;;;;;;1.35;0.40;;;21.20;94.40;;;;;;6139806;23;20022;-91
2022/07/02 10:55:59;;;;;;;0.80;0.13;;;21.30;94.30;;;;;;6140093;23;20023;-95
2022/07/02 10:58:34;;;;;;;0.43;0.10;;;21.40;92.90;;;;;;6140051;23;20023;-95
2022/07/02 11:05:15;;;;;;;0.55;0.20;;;21.30;92.80;;;;;;6065772;23;20095;-95
2022/07/02 11:07:44;;;;;;;0.63;0.20;;;21.30;93.40;;;;;;6139366;23;20023;-91
2022/07/02 11:10:10;;;;;;;0.10;0.10;;;21.40;93.20;;;;;;6141138;23;20026;-91
2022/07/02 11:12:56;;;;;;;0.43;0.20;;;21.40;93.00;;;;;;6140474;23;20449;-95
2022/07/02 11:15:33;;;;;;;0.30;0.20;;;21.50;92.70;;;;;;6139587;23;20042;-93
2022/07/02 11:18:03;;;;;;;0.10;0.10;;;21.40;91.70;;;;;;6140042;23;20085;-93
2022/07/02 11:20:34;;;;;;;0.47;0.28;;;21.30;92.20;;;;;;6139776;23;20078;-90
2022/07/02 11:23:00;;;;;;;0.70;0.30;;;21.20;92.50;;;;;;6137078;23;20244;-94
2022/07/02 11:25:29;;;;;;;0.70;0.60;;;21.10;92.30;;;;;;6140743;23;20034;-92
2022/07/02 11:28:00;;;;;;;0.17;0.17;;;21.00;92.60;;;;;;6139748;23;20046;-94
2022/07/02 11:30:33;;;;;;;1.17;0.20;;;21.10;92.90;;;;;;6143616;23;20019;-88
2022/07/02 11:32:59;;;;;;;1.08;0.32;;;21.20;92.90;;;;;;6167530;23;20061;-95
2022/07/02 11:35:25;;;;;;;;;;;21.40;92.80;;;;;;6165469;23;20326;-89
2022/07/02 11:37:57;;;;;;;0.40;0.10;;;21.60;90.80;;;;;;6191223;23;19924;-90
2022/07/02 11:40:25;;;;;;;0.30;0.10;;;21.80;91.20;;;;;;6167838;23;20025;-92
2022/07/02 11:42:50;;;;;;;0.65;0.10;;;21.90;91.70;;;;;;6168431;23;20023;-88
2022/07/02 11:45:16;;;;;;;0.93;0.20;;;21.90;91.20;;;;;;6172043;23;20330;-88
2022/07/02 11:47:43;;;;;;;0.35;0.20;;;21.80;91.30;;;;;;6171514;23;20061;-91
2022/07/02 11:50:09;;;;;;;0.40;0.20;;;21.70;90.80;;;;;;6173095;23;20022;-88
2022/07/02 11:52:35;;;;;;;1.70;0.20;;;21.60;90.60;;;;;;6172699;23;20046;-92
2022/07/02 11:55:03;;;;;;;2.10;0.20;;;21.50;91.10;;;;;;6172230;23;20011;-91
2022/07/02 11:57:32;;;;;;;0.63;0.20;;;21.40;90.80;;;;;;6149197;23;20019;-90
2022/07/02 11:59:58;;;;;;;1.00;0.10;;;21.40;90.80;;;;;;6172128;23;20019;-93
2022/07/02 12:02:24;;;;;;;0.85;0.13;;;21.30;90.60;;;;;;6070205;23;20353;-91
2022/07/02 12:07:25;;;;;;;0.70;0.20;;;21.20;90.60;;;;;;6201230;22;20028;-94
2022/07/02 12:09:53;;;;;;;0.22;0.20;;;21.30;91.10;;;;;;6221175;23;20016;-93
2022/07/02 12:12:19;;;;;;;10.90;0.43;;;21.20;91.20;;;;;;6221132;23;20016;-94
2022/07/02 12:18:20;;;;;;;0.90;0.30;;;21.20;91.10;;;;;;6106286;22;20025;-94
2022/07/02 12:20:47;;;;;;;0.80;0.20;;;21.20;91.10;;;;;;6221260;23;20020;-91
2022/07/02 12:23:13;;;;;;;1.80;0.25;;;21.30;91.30;;;;;;6246213;23;20018;-94
2022/07/02 12:25:47;;;;;;;0.93;0.43;;;21.30;91.20;;;;;;6220741;23;20034;-92
2022/07/02 12:31:04;;;;;;;0.30;0.30;;;21.30;90.70;;;;;;6246449;23;20023;-92
2022/07/02 12:33:34;;;;;;;1.77;0.30;;;21.20;90.40;;;;;;6221402;23;20028;-93
2022/07/02 12:36:04;;;;;;;0.82;0.30;;;21.20;90.80;;;;;;6220473;23;20043;-91
2022/07/02 12:38:44;;;;;;;0.65;0.28;;;21.30;90.90;;;;;;6220784;23;20016;-92
2022/07/02 12:41:10;;;;;;;0.93;0.20;;;21.30;90.50;;;;;;6220617;23;20086;-93
2022/07/02 12:43:35;;;;;;;;;;;21.20;90.40;;;;;;6221163;23;20012;-92
2022/07/02 12:46:06;;;;;;;0.80;0.20;;;21.30;90.40;;;;;;6220268;23;20297;-93
2022/07/02 12:48:41;;;;;;;0.28;0.10;;;21.40;90.80;;;;;;6220924;23;20102;-93
2022/07/02 12:51:24;;;;;;;0.65;0.28;;;21.50;91.10;;;;;;6245828;23;20035;-93
2022/07/02 12:54:31;;;;;;;1.25;0.20;;;21.70;90.70;;;;;;6220843;23;20012;-91
2022/07/02 12:56:57;;;;;;;0.45;0.20;;;21.80;90.10;;;;;;6204613;23;20048;-93
2022/07/02 12:59:53;;;;;;;0.38;0.20;;;21.70;90.30;;;;;;6221530;23;20458;-93
2022/07/02 13:02:27;;;;;;;0.70;0.10;;;21.60;90.10;;;;;;6243481;23;20020;-94
2022/07/02 13:04:53;;;;;;;0.20;0.10;;;21.60;90.30;;;;;;6220443;23;20023;-93
2022/07/02 13:07:18;;;;;;;;;;;21.60;90.10;;;;;;6220497;23;20046;-90
2022/07/02 13:09:49;;;;;;;0.77;0.20;;;21.60;89.00;;;;;;6220545;23;19951;-93
2022/07/02 13:12:15;;;;;;;0.50;0.20;;;21.50;90.10;;;;;;6219123;23;20016;-94
2022/07/02 13:14:57;;;;;;;0.90;0.10;;;21.60;89.90;;;;;;6220193;23;20315;-93
2022/07/02 13:17:23;;;;;;;1.27;0.10;;;21.60;89.10;;;;;;6218755;23;20066;-93
2022/07/02 13:19:54;;;;;;;0.35;0.20;;;21.70;89.80;;;;;;6220401;23;20453;-93
2022/07/02 13:22:26;;;;;;;0.65;0.20;;;21.70;89.80;;;;;;6220732;23;20023;-92
2022/07/02 13:24:53;;;;;;;0.20;0.20;;;21.70;90.00;;;;;;6220428;23;20023;-93
2022/07/02 13:27:22;;;;;;;0.63;0.20;;;21.80;89.80;;;;;;6221327;23;20027;-93
2022/07/02 13:29:51;;;;;;;0.30;0.20;;;22.00;90.20;;;;;;6220241;23;20027;-93
2022/07/02 13:32:36;;;;;;;0.60;0.20;;;22.30;90.00;;;;;;6220665;23;20021;-93
2022/07/02 13:35:07;;;;;;;3.08;0.20;;;22.40;89.20;;;;;;6221107;23;20100;-91
2022/07/02 13:37:43;;;;;;;0.47;0.22;;;22.40;89.80;;;;;;6220037;23;20024;-93
2022/07/02 13:40:10;;;;;;;1.10;0.33;;;22.40;88.20;;;;;;6220346;23;20023;-93
2022/07/02 13:42:37;;;;;;;0.57;0.25;;;22.30;88.20;;;;;;6220479;23;20077;-93
2022/07/02 13:45:06;;;;;;;;;;;22.20;88.10;;;;;;6220907;23;20450;-93
2022/07/02 13:47:51;;;;;;;;;;;;;;;;;;;;;
2022/07/02 13:50:39;;;;;;;2.97;1.02;;;22.10;89.60;;;;;;6246455;23;20012;-95
2022/07/02 13:53:04;;;;;;;1.35;0.40;;;22.10;90.20;;;;;;6221053;23;20027;-94
2022/07/02 13:55:30;;;;;;;0.57;0.30;;;22.20;90.40;;;;;;6221461;23;20099;-94
2022/07/02 13:57:56;;;;;;;0.32;0.13;;;22.20;89.70;;;;;;6222765;23;20040;-95
2022/07/02 14:00:22;;;;;;;0.75;0.20;;;22.20;88.90;;;;;;6221980;23;20078;-93
2022/07/02 14:02:48;;;;;;;0.63;0.20;;;22.10;88.40;;;;;;6224958;23;20012;-94
2022/07/02 14:11:25;;;;;;;0.55;0.20;;;22.30;88.80;;;;;;6186074;22;20434;-91
2022/07/02 14:13:51;;;;;;;;;;;22.50;87.30;;;;;;6160865;23;20095;-90
2022/07/02 14:16:18;;;;;;;1.40;0.30;;;22.60;86.90;;;;;;6160330;23;19959;-92
2022/07/02 14:18:44;;;;;;;0.43;0.20;;;22.70;88.40;;;;;;6162275;23;20017;-89
2022/07/02 14:21:10;;;;;;;0.52;0.25;;;22.70;87.90;;;;;;6159778;23;20095;-92
2022/07/02 14:23:35;;;;;;;3.17;0.80;;;22.60;87.70;;;;;;6183281;23;20055;-92
2022/07/02 14:26:01;;;;;;;2.03;0.40;;;22.50;87.80;;;;;;6157516;23;20036;-96
2022/07/02 14:28:29;;;;;;;0.40;0.20;;;22.50;89.00;;;;;;6158349;23;20039;-91
2022/07/02 14:30:58;;;;;;;0.40;0.20;;;22.40;88.90;;;;;;6184060;23;20017;-96
2022/07/02 14:33:25;;;;;;;0.60;0.28;;;22.40;88.70;;;;;;6159699;23;20025;-90
2022/07/02 14:35:52;;;;;;;0.10;0.10;;;22.30;88.20;;;;;;6160088;23;20099;-93
2022/07/02 14:38:41;;;;;;;2.25;0.85;;;22.30;88.10;;;;;;6160611;23;20040;-90
2022/07/02 14:43:51;;;;;;;3.72;0.30;;;22.20;88.20;;;;;;6184962;23;20055;-92
2022/07/02 14:48:48;;;;;;;0.85;0.45;;;22.10;88.80;;;;;;6185158;23;20021;-92
2022/07/02 14:51:14;;;;;;;0.28;0.20;;;22.00;88.80;;;;;;6160246;23;20096;-96
2022/07/02 14:53:40;;;;;;;0.20;0.20;;;22.00;89.00;;;;;;6184976;23;20454;-93
2022/07/02 14:56:06;;;;;;;0.40;0.28;;;22.00;89.20;;;;;;6159963;23;20021;-96
2022/07/02 14:58:31;;;;;;;0.90;0.20;;;22.00;88.10;;;;;;6159876;23;20040;-91
2022/07/02 15:00:57;;;;;;;0.22;0.20;;;21.90;88.10;;;;;;6184905;23;20021;-93
2022/07/02 15:03:23;;;;;;;0.40;0.20;;;21.90;87.50;;;;;;6160190;23;20055;-93
2022/07/02 15:06:11;;;;;;;1.95;0.30;;;21.90;87.40;;;;;;6159854;23;20100;-89
2022/07/02 15:08:37;;;;;;;0.13;0.10;;;21.80;86.50;;;;;;6157848;23;20055;-89
2022/07/02 15:11:03;;;;;;;;;;;21.80;87.60;;;;;;6183588;23;20017;-90
2022/07/02 15:15:59;;;;;;;0.80;0.30;;;21.80;88.60;;;;;;6183976;23;20345;-93
2022/07/02 15:16:15;;;;;;;2.05;0.40;;;21.80;89.60;;;;;;6184683;23;20095;-92
2022/07/02 15:18:41;;;;;;;0.70;0.20;;;21.70;90.10;;;;;;6184335;23;20024;-89
2022/07/02 16:37:11;;;;;;;1.70;0.40;;;22.00;90.80;;;;;;6208383;22;20024;-94
2022/07/02 16:51:53;;;;;;;1.23;0.38;;;22.20;88.60;;;;;;6216887;22;20473;-94
2022/07/02 17:02:19;;;;;;;1.05;0.50;;;22.00;89.70;;;;;;6200200;23;20469;-94
2022/07/02 17:16:00;;;;;;;0.60;0.20;;;22.00;88.70;;;;;;6216568;22;20442;-94
2022/07/02 17:23:36;;;;;;;0.77;0.40;;;21.90;89.30;;;;;;6217930;22;20020;-95
2022/07/02 17:26:02;;;;;;;0.85;0.30;;;21.90;90.00;;;;;;6172491;23;20027;-95
2022/07/02 17:28:28;;;;;;;1.02;0.35;;;21.90;90.00;;;;;;6182609;23;20020;-93
2022/07/02 17:30:54;;;;;;;0.95;0.40;;;21.90;89.60;;;;;;6210467;23;20068;-92
2022/07/02 17:33:20;;;;;;;0.43;0.30;;;21.90;89.70;;;;;;6184539;23;20080;-95
2022/07/02 17:35:46;;;;;;;1.85;0.40;;;21.90;90.20;;;;;;6166911;23;20024;-95
2022/07/02 17:38:43;;;;;;;1.20;0.40;;;21.90;90.60;;;;;;6167165;23;20031;-95
2022/07/02 17:41:33;;;;;;;0.50;0.30;;;21.90;90.20;;;;;;6166065;23;20056;-93
2022/07/02 17:43:59;;;;;;;0.80;0.35;;;21.90;90.30;;;;;;6165543;23;20317;-95
2022/07/02 17:46:25;;;;;;;1.10;0.47;;;22.00;90.20;;;;;;6165369;23;20099;-94
2022/07/02 17:48:51;;;;;;;0.80;0.30;;;21.90;90.30;;;;;;6165435;23;20075;-94
2022/07/02 18:20:48;;;;;;;1.33;0.47;;;21.30;92.50;;;;;;6192173;23;20049;-96
2022/07/02 19:01:02;;;;;;;1.00;0.40;;;20.40;95.30;;;;;;6215765;22;20435;-94
2022/07/02 19:16:59;;;;;;;3.05;1.17;;;20.10;97.20;;;;;;6218628;22;20016;-95
2022/07/02 19:19:25;;;;;;;1.10;0.50;;;20.00;97.10;;;;;;6191885;23;20086;-95
2022/07/02 19:25:01;;;;;;;1.63;0.80;;;20.00;97.10;;;;;;6202289;23;20557;-93
2022/07/02 19:30:28;;;;;;;1.52;0.70;;;20.00;97.50;;;;;;6216628;23;20055;-93
2022/07/02 19:33:01;;;;;;;2.05;0.65;;;19.90;97.80;;;;;;6190758;23;20075;-93
2022/07/02 19:35:32;;;;;;;1.02;0.60;;;19.90;97.90;;;;;;6191599;23;20438;-93
2022/07/02 19:38:06;;;;;;;1.40;0.60;;;19.90;98.20;;;;;;6191614;23;20008;-93
2022/07/02 19:41:04;;;;;;;;;;;;;;;;;;;;;
2022/07/02 19:43:42;;;;;;;1.23;0.60;;;19.80;99.00;;;;;;6216369;23;20020;-94
2022/07/02 19:46:07;;;;;;;2.35;0.60;;;19.80;99.10;;;;;;6190582;23;20017;-95
2022/07/02 19:48:42;;;;;;;1.15;0.65;;;19.80;99.20;;;;;;6189643;23;20105;-94
2022/07/02 19:51:08;;;;;;;2.08;0.65;;;19.70;99.50;;;;;;6191130;23;20442;-94
2022/07/02 19:53:34;;;;;;;0.52;0.35;;;19.70;99.90;;;;;;6191401;23;20027;-94
2022/07/02 21:10:10;;;;;;;4.13;1.73;;;19.10;99.90;;;;;;6245566;22;20020;-94
2022/07/02 21:38:19;;;;;;;2.83;1.42;;;18.70;99.90;;;;;;6245491;22;20031;-95
2022/07/02 21:40:45;;;;;;;2.97;1.40;;;18.60;99.90;;;;;;6195522;23;20016;-96
2022/07/02 22:14:15;;;;;;;1.75;0.85;;;18.30;99.90;;;;;;6245671;22;20020;-96
2022/07/02 23:28:26;;;;;;;2.40;1.10;;;17.50;99.90;;;;;;6244102;22;20095;-96
2022/07/02 23:30:51;;;;;;;2.58;1.10;;;17.50;99.90;;;;;;6194784;23;20055;-96
2022/07/02 23:33:17;;;;;;;3.83;1.30;;;17.50;99.90;;;;;;6194923;23;20023;-96
2022/07/02 23:35:43;;;;;;;3.38;0.98;;;17.50;99.90;;;;;;6196024;23;20016;-96
2022/07/02 23:48:52;;;;;;;2.13;1.02;;;17.20;99.90;;;;;;6249961;22;20035;-96
2022/07/02 23:51:17;;;;;;;1.80;1.00;;;17.20;99.90;;;;;;6200177;23;20103;-96
2022/07/02 23:53:43;;;;;;;3.20;1.35;;;17.20;99.90;;;;;;6200021;23;20066;-96
